Have a Safe July 4th! 

Flight Track Log - Related Links

Times and Time Zones

All times are in EDT time to prevent confusion due to time zone crossing. See the N754DJ flight status page for this flight to view local times or setup timezone preferences in your user account.

Time Position Orientation Groundspeed Altitude Reporting Facility
EDT Latitude Longitude Course Direction KTS MPH feet Rate Location/Type
Thu 05:38:05 PM 40.9181 -97.4714 94° East 144 166 4,700  Level Minneapolis Center
Thu 05:39:07 PM 40.9164 -97.4164 92° East 144 166 5,500 774 Climbing Minneapolis Center
Thu 05:40:09 PM 40.9161 -97.3633 90° East 150 173 6,300 857 Climbing Minneapolis Center
Thu 05:40:38 PM 40.8958 -97.3242 124° Southeast 155 178 6,800 871 Climbing Minneapolis Center
Thu 05:41:11 PM 40.9150 -97.2961 48° Northeast 151 174 7,200 764 Climbing Minneapolis Center
Thu 05:41:33 PM 40.8953 -97.2717 137° Southeast 156 180 7,500 774 Climbing Minneapolis Center
Thu 05:42:00 PM 40.8826 -97.1406 96° East  Level FlightAware Approximate
Thu 05:42:13 PM 40.9125 -97.2378 56° Northeast 156 180 8,000  Level Minneapolis Center
Thu 05:43:15 PM 40.9111 -97.1792 92° East 157 181 8,800 774 Climbing Minneapolis Center
Thu 05:44:17 PM 40.9094 -97.1208 92° East 157 181 9,600 726 Climbing Minneapolis Center
Thu 05:45:19 PM 40.9078 -97.0603 92° East 160 184 10,300 677 Climbing Minneapolis Center
Thu 05:46:21 PM 40.9061 -96.9953 92° East 171 197 11,000 726 Climbing Minneapolis Center
Thu 05:47:23 PM 40.9044 -96.9150 92° East 180 207 11,800 726 Climbing Minneapolis Center
Thu 05:48:25 PM 40.9017 -96.8469 93° East 181 208 12,500 677 Climbing Minneapolis Center
Thu 05:49:27 PM 40.8994 -96.7789 92° East 183 211 13,200 677 Climbing Minneapolis Center
Thu 05:50:29 PM 40.8972 -96.7064 92° East 192 221 13,900 683 Climbing Minneapolis Center
Thu 05:51:30 PM 40.8958 -96.6333 91° East 195 224 14,600 683 Climbing Minneapolis Center
Thu 05:52:32 PM 40.8931 -96.5589 93° East 200 230 15,300 720 Climbing Minneapolis Center
Thu 05:53:35 PM 40.8894 -96.4675 93° East 205 236 16,100 772 Climbing Minneapolis Center
Thu 05:54:13 PM 40.8808 -96.4136 102° East 214 246 16,600 783 Climbing Minneapolis Center
Thu 05:54:44 PM 40.8800 -96.3697 91° East 211 243 17,000 282 Climbing Minneapolis Center
Thu 05:55:38 PM 40.8847 -96.3097 84° East 215 247 17,000  Level Minneapolis Center
Thu 05:55:45 PM 40.8792 -96.2900 110° East 232 267 17,000  Level Minneapolis Center
Thu 05:56:40 PM 40.8814 -96.2225 87° East 232 267 17,000  Level Minneapolis Center
Thu 05:57:42 PM 40.8772 -96.1342 94° East 237 273 17,000  Level Minneapolis Center
Thu 05:58:44 PM 40.8753 -96.0461 92° East 238 274 17,000  Level Minneapolis Center
Thu 05:59:46 PM 40.8706 -95.9406 93° East 238 274 17,000  Level Minneapolis Center
Thu 06:00:48 PM 40.8675 -95.8544 93° East 238 274 17,000  Level Minneapolis Center
Thu 06:01:50 PM 40.8639 -95.7672 93° East 238 274 17,000  Level Minneapolis Center
Thu 06:02:52 PM 40.8603 -95.6836 93° East 234 269 17,000  Level Minneapolis Center
Thu 06:03:54 PM 40.8583 -95.6003 92° East 233 268 17,000  Level Minneapolis Center
Thu 06:04:56 PM 40.8531 -95.5189 95° East 225 259 17,000  Level Minneapolis Center
Thu 06:05:58 PM 40.8500 -95.4183 92° East 225 259 17,000  Level Minneapolis Center
Thu 06:07:00 PM 40.8458 -95.3339 94° East 226 260 17,000  Level Minneapolis Center
Thu 06:08:03 PM 40.8428 -95.2478 93° East 231 266 17,000  Level Minneapolis Center
Thu 06:09:05 PM 40.8394 -95.1633 93° East 231 266 17,000  Level Minneapolis Center
Thu 06:10:07 PM 40.8344 -95.0794 94° East 231 266 17,000  Level Minneapolis Center
Thu 06:11:09 PM 40.8303 -94.9781 93° East 231 266 17,000  Level Minneapolis Center
Thu 06:12:11 PM 40.8256 -94.8933 94° East 231 266 17,000  Level Minneapolis Center
Thu 06:13:13 PM 40.8225 -94.8083 93° East 231 266 17,000  Level Minneapolis Center
Thu 06:14:15 PM 40.8181 -94.7239 94° East 231 266 17,000  Level Minneapolis Center
Thu 06:15:17 PM 40.8128 -94.6397 95° East 231 266 17,000 48 Level Minneapolis Center
Thu 06:16:19 PM 40.8094 -94.5475 93° East 231 266 17,100 48 Climbing Minneapolis Center
Thu 06:17:21 PM 40.8042 -94.4631 95° East 232 267 17,100  Level Minneapolis Center
Thu 06:18:24 PM 40.8000 -94.3781 94° East 232 267 17,100  Level Minneapolis Center
Thu 06:19:26 PM 40.7947 -94.2747 94° East 232 267 17,100  Level Minneapolis Center
Thu 06:20:28 PM 40.7908 -94.1897 93° East 232 267 17,100 -48 Level Minneapolis Center
Thu 06:21:30 PM 40.7858 -94.1044 94° East 233 268 17,000 -48 Descending Minneapolis Center
Thu 06:22:32 PM 40.7803 -94.0197 95° East 233 268 17,000  Level Minneapolis Center
Thu 06:23:34 PM 40.7758 -93.9367 94° East 233 268 17,000  Level Minneapolis Center
Thu 06:24:36 PM 40.7706 -93.8339 94° East 233 268 17,000  Level Minneapolis Center
Thu 06:25:38 PM 40.7647 -93.7478 95° East 235 270 17,000  Level Minneapolis Center
Thu 06:26:40 PM 40.7606 -93.6625 94° East 235 270 17,000  Level Minneapolis Center
Thu 06:27:42 PM 40.7567 -93.5753 93° East 236 272 17,000  Level Minneapolis Center
Thu 06:28:44 PM 40.7514 -93.4889 95° East 236 272 17,000  Level Minneapolis Center
Thu 06:29:47 PM 40.7439 -93.3881 96° East 236 272 17,000  Level Minneapolis Center
Thu 06:30:49 PM 40.7386 -93.3019 95° East 236 272 17,000  Level Minneapolis Center
Thu 06:31:51 PM 40.7344 -93.2161 94° East 236 272 17,000  Level Minneapolis Center
Thu 06:32:53 PM 40.7286 -93.1300 95° East 236 272 17,000  Level Minneapolis Center
Thu 06:33:55 PM 40.7225 -93.0439 95° East 236 272 17,000  Level Minneapolis Center
Thu 06:34:57 PM 40.7172 -92.9394 94° East 236 272 17,000  Level Minneapolis Center
Thu 06:35:59 PM 40.7117 -92.8519 95° East 236 272 17,000  Level Minneapolis Center
Thu 06:37:10 PM 40.7050 -92.7469 95° East 239 275 17,000  Level Kansas City Center
Thu 06:37:40 PM 40.7017 -92.7119 97° East 238 274 17,000  Level Chicago Center
Thu 06:38:42 PM 40.6961 -92.6264 95° East 238 274 17,000  Level Chicago Center
Thu 06:39:44 PM 40.6894 -92.5228 95° East 238 274 17,000  Level Chicago Center
Thu 06:40:46 PM 40.6836 -92.4353 95° East 238 274 17,000  Level Chicago Center
Thu 06:41:49 PM 40.6778 -92.3494 95° East 238 274 17,000  Level Chicago Center
Thu 06:42:51 PM 40.6714 -92.2628 96° East 238 274 17,000  Level Chicago Center
Thu 06:43:53 PM 40.6656 -92.1756 95° East 238 274 17,000  Level Chicago Center
Thu 06:44:55 PM 40.6597 -92.0883 95° East 239 275 17,000  Level Chicago Center
Thu 06:45:57 PM 40.6519 -91.9844 96° East 239 275 17,000  Level Chicago Center
Thu 06:46:59 PM 40.6447 -91.8978 96° East 239 275 17,000  Level Chicago Center
Thu 06:48:01 PM 40.6392 -91.8114 95° East 239 275 17,000  Level Chicago Center
Thu 06:49:03 PM 40.6328 -91.7250 96° East 239 275 17,000  Level Chicago Center
Thu 06:50:06 PM 40.6258 -91.6375 96° East 239 275 17,000  Level Chicago Center
Thu 06:50:38 PM 40.6217 -91.5850 96° East 239 275 17,000  Level Kansas City Center
Thu 06:51:39 PM 40.6139 -91.4969 97° East 239 275 17,000  Level Kansas City Center
Thu 06:52:40 PM 40.6081 -91.4100 95° East 240 276 17,000 -48 Level Kansas City Center
Thu 06:53:44 PM 40.5994 -91.3219 97° East 244 281 16,900 -48 Descending Kansas City Center
Thu 06:54:45 PM 40.5922 -91.2219 95° East 243 280 16,900  Level Kansas City Center
Thu 06:55:46 PM 40.5850 -91.1361 96° East 241 277 16,900  Level Kansas City Center
Thu 06:56:18 PM 40.5825 -91.0842 94° East 239 275 16,900  Level Chicago Center
Thu 06:57:20 PM 40.5761 -90.9975 96° East 239 275 16,900  Level Chicago Center
Thu 06:58:23 PM 40.5689 -90.9111 96° East 239 275 16,900  Level Chicago Center
Thu 06:59:25 PM 40.5608 -90.8250 97° East 239 275 16,900  Level Chicago Center
Thu 07:00:27 PM 40.5542 -90.7364 96° East 243 280 16,900  Level Chicago Center
Thu 07:01:29 PM 40.5456 -90.6325 96° East 241 277 16,900  Level Chicago Center
Thu 07:02:31 PM 40.5381 -90.5444 96° East 241 277 16,900  Level Chicago Center
Thu 07:03:33 PM 40.5303 -90.4556 97° East 242 278 16,900  Level Chicago Center
Thu 07:04:35 PM 40.5231 -90.3686 96° East 242 278 16,900  Level Chicago Center
Thu 07:05:38 PM 40.5147 -90.2814 97° East 242 278 16,900  Level Chicago Center
Thu 07:06:40 PM 40.5061 -90.1844 97° East 242 278 16,900  Level Chicago Center
Thu 07:07:42 PM 40.4983 -90.0989 97° East 241 277 16,900  Level Chicago Center
Thu 07:08:44 PM 40.4908 -90.0125 96° East 240 276 16,900  Level Chicago Center
Thu 07:09:46 PM 40.4811 -89.9094 97° East 240 276 16,900  Level Chicago Center
Thu 07:10:48 PM 40.4733 -89.8239 97° East 239 275 16,900  Level Chicago Center
Thu 07:11:50 PM 40.4647 -89.7317 97° East 238 274 16,900  Level Chicago Center
Thu 07:12:52 PM 40.4578 -89.6461 96° East 238 274 16,900  Level Chicago Center
Thu 07:13:55 PM 40.4492 -89.5614 98° East 237 273 16,900  Level Chicago Center
Thu 07:14:57 PM 40.4419 -89.4764 96° East 237 273 16,900  Level Chicago Center
Thu 07:15:59 PM 40.4333 -89.3908 98° East 236 272 16,900  Level Chicago Center
Thu 07:17:01 PM 40.4231 -89.2886 97° East 236 272 16,900  Level Chicago Center
Thu 07:18:03 PM 40.4144 -89.2019 97° East 236 272 16,900  Level Chicago Center
Thu 07:19:05 PM 40.4075 -89.1153 96° East 240 276 16,900  Level Chicago Center
Thu 07:20:07 PM 40.3989 -89.0292 97° East 239 275 16,900  Level Chicago Center
Thu 07:21:10 PM 40.3897 -88.9436 98° East 239 275 16,900  Level Chicago Center
Thu 07:22:12 PM 40.3814 -88.8586 97° East 239 275 16,900  Level Chicago Center
Thu 07:23:14 PM 40.3708 -88.7578 98° East 238 274 16,900  Level Chicago Center
Thu 07:24:16 PM 40.3628 -88.6708 97° East 238 274 16,900  Level Chicago Center
Thu 07:25:18 PM 40.3531 -88.5856 98° East 238 274 16,900  Level Chicago Center
Thu 07:26:20 PM 40.3444 -88.4967 97° East 237 273 16,900  Level Chicago Center
Thu 07:27:22 PM 40.3356 -88.4114 98° East 237 273 16,900  Level Chicago Center
Thu 07:28:25 PM 40.3275 -88.3267 97° East 237 273 16,900 -48 Level Chicago Center
Thu 07:29:27 PM 40.3033 -88.2275 108° East 237 273 16,800 -194 Descending Chicago Center
Thu 07:30:29 PM 40.2836 -88.1439 107° East 238 274 16,500 -387 Descending Chicago Center
Thu 07:31:31 PM 40.2628 -88.0578 108° East 246 283 16,000 -484 Descending Chicago Center
Thu 07:32:33 PM 40.2433 -87.9672 106° East 256 295 15,500 -484 Descending Chicago Center
Thu 07:33:35 PM 40.2217 -87.8794 108° East 257 296 15,000 -574 Descending Chicago Center
Thu 07:34:28 PM 40.1992 -87.7889 108° East 258 297 14,400 -730 Descending Indianapolis Center
Thu 07:35:30 PM 40.1772 -87.6983 108° East 258 297 13,600 -780 Descending Indianapolis Center
Thu 07:36:31 PM 40.1553 -87.6072 107° East 259 298 12,800 -780 Descending Indianapolis Center
Thu 07:37:33 PM 40.1342 -87.5186 107° East 259 298 12,000 -726 Descending Indianapolis Center
Thu 07:38:35 PM 40.1125 -87.4325 108° East 256 295 11,300 -774 Descending Indianapolis Center
Thu 07:39:37 PM 40.0886 -87.3314 107° East 248 285 10,400 -774 Descending Indianapolis Center
Thu 07:40:39 PM 40.0678 -87.2483 108° East 246 283 9,700 -726 Descending Indianapolis Center
Thu 07:41:41 PM 40.0486 -87.1653 107° East 243 280 8,900 -726 Descending Indianapolis Center
Thu 07:42:43 PM 40.0278 -87.0881 109° East 232 267 8,200 -629 Descending Indianapolis Center
Thu 07:43:45 PM 40.0106 -87.0111 106° East 228 262 7,600 -581 Descending Indianapolis Center
Thu 07:44:47 PM 39.9917 -86.9369 108° East 220 253 7,000 -290 Descending Indianapolis Center
Thu 07:45:49 PM 39.9747 -86.8658 107° East 211 243 7,000 -195 Level Indianapolis Center
Thu 07:46:50 PM 39.9531 -86.7817 109° East 205 236 6,600 -585 Descending Indianapolis Center
Thu 07:47:52 PM 39.9350 -86.7072 108° East 209 241 5,800 -774 Descending Indianapolis Center
Thu 07:48:54 PM 39.9161 -86.6333 108° East 212 244 5,000 -774 Descending Indianapolis Center
Thu 07:49:56 PM 39.8992 -86.5650 108° East 208 239 4,200 -774 Descending Indianapolis Center
Thu 07:50:58 PM 39.8825 -86.4978 108° East 201 231 3,400 -581 Descending Indianapolis Center
Thu 07:52:00 PM 39.8653 -86.4317 109° East 199 229 3,000 -387 Descending Indianapolis Center

Login

Don't have an account? Register now (free) for customized features, flight alerts, and more!